sensor_id;sensor_type;location;lat;lon;timestamp;pressure;altitude;pressure_sealevel;temperature;humidity
30598;BME280;17365;48.878;8.334;2023-02-19T00:01:14;100756.56;;;9.48;100.00
30598;BME280;17365;48.878;8.334;2023-02-19T00:03:40;100751.06;;;9.83;100.00
30598;BME280;17365;48.878;8.334;2023-02-19T00:06:08;100741.25;;;9.62;100.00
30598;BME280;17365;48.878;8.334;2023-02-19T00:08:36;100741.97;;;9.52;100.00
30598;BME280;17365;48.878;8.334;2023-02-19T00:11:10;100750.47;;;9.43;100.00
30598;BME280;17365;48.878;8.334;2023-02-19T00:13:36;100737.31;;;9.31;100.00
30598;BME280;17365;48.878;8.334;2023-02-19T00:16:06;100746.28;;;9.51;100.00
30598;BME280;17365;48.878;8.334;2023-02-19T00:18:32;100744.13;;;9.27;100.00
30598;BME280;17365;48.878;8.334;2023-02-19T00:20:57;100742.47;;;9.29;100.00
30598;BME280;17365;48.878;8.334;2023-02-19T00:23:22;100735.75;;;9.41;100.00
30598;BME280;17365;48.878;8.334;2023-02-19T00:25:48;100740.09;;;9.43;100.00
30598;BME280;17365;48.878;8.334;2023-02-19T00:28:13;100730.78;;;9.53;100.00
30598;BME280;17365;48.878;8.334;2023-02-19T00:30:38;100733.41;;;9.57;100.00
30598;BME280;17365;48.878;8.334;2023-02-19T00:33:04;100745.53;;;9.60;100.00
30598;BME280;17365;48.878;8.334;2023-02-19T00:35:32;100738.63;;;9.60;100.00
30598;BME280;17365;48.878;8.334;2023-02-19T00:37:58;100733.41;;;9.56;100.00
30598;BME280;17365;48.878;8.334;2023-02-19T00:40:23;100734.84;;;9.39;100.00
30598;BME280;17365;48.878;8.334;2023-02-19T00:42:50;100734.94;;;9.45;100.00
30598;BME280;17365;48.878;8.334;2023-02-19T00:45:15;100736.72;;;9.49;100.00
30598;BME280;17365;48.878;8.334;2023-02-19T00:47:40;100721.78;;;9.31;100.00
30598;BME280;17365;48.878;8.334;2023-02-19T00:50:06;100713.50;;;9.53;100.00
30598;BME280;17365;48.878;8.334;2023-02-19T00:52:31;100715.28;;;9.56;100.00
30598;BME280;17365;48.878;8.334;2023-02-19T00:54:56;100708.81;;;9.29;100.00
30598;BME280;17365;48.878;8.334;2023-02-19T00:57:22;100708.81;;;9.29;100.00
30598;BME280;17365;48.878;8.334;2023-02-19T00:59:47;100706.97;;;9.24;100.00
30598;BME280;17365;48.878;8.334;2023-02-19T01:02:12;100700.88;;;9.19;100.00
30598;BME280;17365;48.878;8.334;2023-02-19T01:04:37;100703.63;;;9.29;100.00
30598;BME280;17365;48.878;8.334;2023-02-19T01:07:03;100712.22;;;9.28;100.00
30598;BME280;17365;48.878;8.334;2023-02-19T01:09:28;100710.16;;;9.62;100.00
30598;BME280;17365;48.878;8.334;2023-02-19T01:11:53;100715.41;;;9.63;100.00
30598;BME280;17365;48.878;8.334;2023-02-19T01:14:18;100717.31;;;9.75;100.00
30598;BME280;17365;48.878;8.334;2023-02-19T01:16:44;100715.84;;;9.38;100.00
30598;BME280;17365;48.878;8.334;2023-02-19T01:19:09;100716.53;;;9.28;100.00
30598;BME280;17365;48.878;8.334;2023-02-19T01:21:34;100717.72;;;9.48;100.00
30598;BME280;17365;48.878;8.334;2023-02-19T01:23:59;100719.53;;;9.52;100.00
30598;BME280;17365;48.878;8.334;2023-02-19T01:26:30;100723.03;;;9.56;100.00
30598;BME280;17365;48.878;8.334;2023-02-19T01:28:56;100724.22;;;9.75;100.00
30598;BME280;17365;48.878;8.334;2023-02-19T01:31:23;100717.91;;;9.59;100.00
30598;BME280;17365;48.878;8.334;2023-02-19T01:33:53;100717.06;;;9.60;100.00
30598;BME280;17365;48.878;8.334;2023-02-19T01:36:19;100716.28;;;9.64;100.00
30598;BME280;17365;48.878;8.334;2023-02-19T01:38:45;100711.16;;;9.69;100.00
30598;BME280;17365;48.878;8.334;2023-02-19T01:41:13;100706.63;;;9.55;100.00
30598;BME280;17365;48.878;8.334;2023-02-19T01:46:39;100727.47;;;9.63;100.00
30598;BME280;17365;48.878;8.334;2023-02-19T01:51:40;100732.75;;;9.69;100.00
30598;BME280;17365;48.878;8.334;2023-02-19T01:54:08;100733.63;;;9.71;100.00
30598;BME280;17365;48.878;8.334;2023-02-19T01:56:36;100724.81;;;9.60;100.00
30598;BME280;17365;48.878;8.334;2023-02-19T01:59:05;100715.00;;;9.39;100.00
30598;BME280;17365;48.878;8.334;2023-02-19T02:01:31;100707.22;;;9.39;100.00
30598;BME280;17365;48.878;8.334;2023-02-19T02:03:56;100702.78;;;9.29;100.00
30598;BME280;17365;48.878;8.334;2023-02-19T02:06:30;100697.34;;;9.17;100.00
30598;BME280;17365;48.878;8.334;2023-02-19T02:08:59;100698.19;;;9.14;100.00
30598;BME280;17365;48.878;8.334;2023-02-19T02:11:48;100698.34;;;9.23;100.00
30598;BME280;17365;48.878;8.334;2023-02-19T02:14:17;100691.59;;;9.31;100.00
30598;BME280;17365;48.878;8.334;2023-02-19T02:16:56;100684.72;;;9.35;100.00
30598;BME280;17365;48.878;8.334;2023-02-19T02:22:43;100689.69;;;9.21;100.00
30598;BME280;17365;48.878;8.334;2023-02-19T02:25:39;100687.84;;;9.16;100.00
30598;BME280;17365;48.878;8.334;2023-02-19T02:28:35;100694.19;;;9.33;100.00
30598;BME280;17365;48.878;8.334;2023-02-19T02:31:14;100702.63;;;9.21;100.00
30598;BME280;17365;48.878;8.334;2023-02-19T02:33:43;100690.53;;;9.20;100.00
30598;BME280;17365;48.878;8.334;2023-02-19T02:36:18;100690.63;;;9.26;100.00
30598;BME280;17365;48.878;8.334;2023-02-19T02:38:46;100688.91;;;9.27;100.00
30598;BME280;17365;48.878;8.334;2023-02-19T02:41:13;100689.72;;;9.24;100.00
30598;BME280;17365;48.878;8.334;2023-02-19T02:43:39;100689.66;;;9.18;100.00
30598;BME280;17365;48.878;8.334;2023-02-19T02:46:05;100683.69;;;9.25;100.00
30598;BME280;17365;48.878;8.334;2023-02-19T02:48:47;100679.41;;;9.27;100.00
30598;BME280;17365;48.878;8.334;2023-02-19T02:51:29;100674.16;;;9.21;100.00
30598;BME280;17365;48.878;8.334;2023-02-19T02:57:06;100667.63;;;9.45;100.00
30598;BME280;17365;48.878;8.334;2023-02-19T02:59:36;100678.56;;;9.28;100.00
30598;BME280;17365;48.878;8.334;2023-02-19T03:02:15;100669.84;;;9.22;100.00
30598;BME280;17365;48.878;8.334;2023-02-19T03:07:38;100667.66;;;9.48;100.00
30598;BME280;17365;48.878;8.334;2023-02-19T03:10:09;100661.44;;;9.37;100.00
30598;BME280;17365;48.878;8.334;2023-02-19T03:12:38;100659.94;;;9.51;100.00
30598;BME280;17365;48.878;8.334;2023-02-19T03:15:26;100653.75;;;9.41;100.00
30598;BME280;17365;48.878;8.334;2023-02-19T03:18:13;100659.09;;;9.52;100.00
30598;BME280;17365;48.878;8.334;2023-02-19T03:20:59;100660.69;;;9.44;100.00
30598;BME280;17365;48.878;8.334;2023-02-19T03:23:28;100658.28;;;9.56;100.00
30598;BME280;17365;48.878;8.334;2023-02-19T03:26:14;100655.69;;;9.56;100.00
30598;BME280;17365;48.878;8.334;2023-02-19T03:28:42;100657.41;;;9.55;100.00
30598;BME280;17365;48.878;8.334;2023-02-19T03:31:29;100663.38;;;9.50;100.00
30598;BME280;17365;48.878;8.334;2023-02-19T03:33:59;100660.09;;;9.61;100.00
30598;BME280;17365;48.878;8.334;2023-02-19T03:36:31;100673.97;;;9.63;100.00
30598;BME280;17365;48.878;8.334;2023-02-19T03:39:03;100670.28;;;9.51;100.00
30598;BME280;17365;48.878;8.334;2023-02-19T03:47:28;100670.09;;;9.37;100.00
30598;BME280;17365;48.878;8.334;2023-02-19T03:55:24;100679.88;;;9.56;100.00
30598;BME280;17365;48.878;8.334;2023-02-19T03:57:55;100690.94;;;9.46;100.00
30598;BME280;17365;48.878;8.334;2023-02-19T04:00:29;100700.28;;;9.37;100.00
30598;BME280;17365;48.878;8.334;2023-02-19T04:03:10;100701.34;;;9.49;100.00
30598;BME280;17365;48.878;8.334;2023-02-19T04:05:43;100695.28;;;9.47;100.00
30598;BME280;17365;48.878;8.334;2023-02-19T04:08:15;100698.66;;;9.42;100.00
30598;BME280;17365;48.878;8.334;2023-02-19T04:10:44;100702.09;;;9.41;100.00
30598;BME280;17365;48.878;8.334;2023-02-19T04:13:19;100703.88;;;9.45;100.00
30598;BME280;17365;48.878;8.334;2023-02-19T04:15:48;100716.66;;;9.36;100.00
30598;BME280;17365;48.878;8.334;2023-02-19T04:18:18;100725.09;;;9.22;100.00
30598;BME280;17365;48.878;8.334;2023-02-19T04:20:46;100718.19;;;9.23;100.00
30598;BME280;17365;48.878;8.334;2023-02-19T04:23:13;100717.66;;;9.44;100.00
30598;BME280;17365;48.878;8.334;2023-02-19T04:25:43;100730.31;;;9.25;100.00
30598;BME280;17365;48.878;8.334;2023-02-19T04:28:12;100722.72;;;9.36;100.00
30598;BME280;17365;48.878;8.334;2023-02-19T04:30:38;100742.28;;;9.19;100.00
30598;BME280;17365;48.878;8.334;2023-02-19T04:33:03;100731.94;;;9.20;100.00
30598;BME280;17365;48.878;8.334;2023-02-19T04:35:28;100738.50;;;9.01;100.00
30598;BME280;17365;48.878;8.334;2023-02-19T04:37:54;100740.28;;;9.04;100.00
30598;BME280;17365;48.878;8.334;2023-02-19T04:40:19;100740.06;;;8.93;100.00
30598;BME280;17365;48.878;8.334;2023-02-19T04:42:44;100756.41;;;8.89;100.00
30598;BME280;17365;48.878;8.334;2023-02-19T04:45:09;100754.72;;;8.93;100.00
30598;BME280;17365;48.878;8.334;2023-02-19T04:47:35;100758.34;;;9.01;100.00
30598;BME280;17365;48.878;8.334;2023-02-19T04:50:00;100761.81;;;9.03;100.00
30598;BME280;17365;48.878;8.334;2023-02-19T04:52:25;100761.59;;;8.91;100.00
30598;BME280;17365;48.878;8.334;2023-02-19T04:54:51;100774.03;;;9.10;100.00
30598;BME280;17365;48.878;8.334;2023-02-19T04:57:16;100767.75;;;8.96;100.00
30598;BME280;17365;48.878;8.334;2023-02-19T04:59:41;100768.28;;;8.80;100.00
30598;BME280;17365;48.878;8.334;2023-02-19T05:02:06;100771.84;;;8.85;100.00
30598;BME280;17365;48.878;8.334;2023-02-19T05:04:32;100763.28;;;8.89;100.00
30598;BME280;17365;48.878;8.334;2023-02-19T05:06:57;100778.03;;;8.93;100.00
30598;BME280;17365;48.878;8.334;2023-02-19T05:09:22;100776.72;;;8.71;100.00
30598;BME280;17365;48.878;8.334;2023-02-19T05:11:48;100779.72;;;8.92;100.00
30598;BME280;17365;48.878;8.334;2023-02-19T05:14:13;100782.19;;;8.85;100.00
30598;BME280;17365;48.878;8.334;2023-02-19T05:16:38;100774.38;;;8.83;100.00
30598;BME280;17365;48.878;8.334;2023-02-19T05:19:03;100768.09;;;8.70;100.00
30598;BME280;17365;48.878;8.334;2023-02-19T05:21:29;100761.00;;;8.60;100.00
30598;BME280;17365;48.878;8.334;2023-02-19T05:23:54;100756.09;;;8.72;100.00
30598;BME280;17365;48.878;8.334;2023-02-19T05:26:22;100756.13;;;8.74;100.00
30598;BME280;17365;48.878;8.334;2023-02-19T05:28:51;100764.81;;;8.78;100.00
30598;BME280;17365;48.878;8.334;2023-02-19T05:31:17;100761.28;;;8.74;100.00
30598;BME280;17365;48.878;8.334;2023-02-19T05:33:43;100757.72;;;8.69;100.00
30598;BME280;17365;48.878;8.334;2023-02-19T05:36:12;100776.94;;;8.82;100.00
30598;BME280;17365;48.878;8.334;2023-02-19T05:38:37;100770.69;;;8.70;100.00
30598;BME280;17365;48.878;8.334;2023-02-19T05:41:18;100771.34;;;8.60;100.00
30598;BME280;17365;48.878;8.334;2023-02-19T05:43:45;100767.81;;;8.57;100.00
30598;BME280;17365;48.878;8.334;2023-02-19T05:46:12;100768.91;;;8.68;100.00
30598;BME280;17365;48.878;8.334;2023-02-19T05:48:38;100764.59;;;8.67;100.00
30598;BME280;17365;48.878;8.334;2023-02-19T05:51:06;100760.03;;;8.55;100.00
30598;BME280;17365;48.878;8.334;2023-02-19T05:53:32;100768.94;;;8.69;100.00
30598;BME280;17365;48.878;8.334;2023-02-19T05:55:57;100769.97;;;8.78;100.00
30598;BME280;17365;48.878;8.334;2023-02-19T05:58:22;100775.13;;;8.76;100.00
30598;BME280;17365;48.878;8.334;2023-02-19T06:00:48;100776.88;;;8.77;100.00
30598;BME280;17365;48.878;8.334;2023-02-19T06:03:13;100782.97;;;8.81;100.00
30598;BME280;17365;48.878;8.334;2023-02-19T06:05:38;100784.66;;;8.79;100.00
30598;BME280;17365;48.878;8.334;2023-02-19T06:08:04;100784.69;;;8.80;100.00
30598;BME280;17365;48.878;8.334;2023-02-19T06:10:29;100787.44;;;8.88;100.00
30598;BME280;17365;48.878;8.334;2023-02-19T06:12:54;100790.84;;;8.87;100.00
30598;BME280;17365;48.878;8.334;2023-02-19T06:15:20;100787.47;;;8.91;100.00
30598;BME280;17365;48.878;8.334;2023-02-19T06:17:46;100803.66;;;8.81;100.00
30598;BME280;17365;48.878;8.334;2023-02-19T06:20:11;100796.75;;;8.81;100.00
30598;BME280;17365;48.878;8.334;2023-02-19T06:22:36;100808.75;;;8.76;100.00
30598;BME280;17365;48.878;8.334;2023-02-19T06:25:02;100805.31;;;8.77;100.00
30598;BME280;17365;48.878;8.334;2023-02-19T06:27:27;100805.31;;;8.77;100.00
30598;BME280;17365;48.878;8.334;2023-02-19T06:29:53;100804.66;;;8.87;100.00
30598;BME280;17365;48.878;8.334;2023-02-19T06:32:18;100809.06;;;8.93;100.00
30598;BME280;17365;48.878;8.334;2023-02-19T06:34:43;100811.94;;;9.07;100.00
30598;BME280;17365;48.878;8.334;2023-02-19T06:37:09;100814.47;;;9.03;100.00
30598;BME280;17365;48.878;8.334;2023-02-19T06:39:34;100815.41;;;9.07;100.00
30598;BME280;17365;48.878;8.334;2023-02-19T06:41:59;100820.38;;;8.96;100.00
30598;BME280;17365;48.878;8.334;2023-02-19T06:44:25;100818.72;;;9.00;100.00
30598;BME280;17365;48.878;8.334;2023-02-19T06:46:53;100825.63;;;9.01;100.00
30598;BME280;17365;48.878;8.334;2023-02-19T06:49:19;100825.47;;;8.93;100.00
30598;BME280;17365;48.878;8.334;2023-02-19T06:51:44;100833.56;;;9.09;100.00
30598;BME280;17365;48.878;8.334;2023-02-19T06:54:09;100833.59;;;9.12;100.00
30598;BME280;17365;48.878;8.334;2023-02-19T06:56:37;100833.66;;;9.16;100.00
30598;BME280;17365;48.878;8.334;2023-02-19T06:59:06;100828.47;;;9.15;100.00
30598;BME280;17365;48.878;8.334;2023-02-19T07:01:32;100837.19;;;9.18;100.00
30598;BME280;17365;48.878;8.334;2023-02-19T07:03:59;100833.56;;;9.09;100.00
30598;BME280;17365;48.878;8.334;2023-02-19T07:06:26;100841.16;;;9.01;100.00
30598;BME280;17365;48.878;8.334;2023-02-19T07:08:53;100836.97;;;9.08;100.00
30598;BME280;17365;48.878;8.334;2023-02-19T07:11:18;100842.94;;;9.05;100.00
30598;BME280;17365;48.878;8.334;2023-02-19T07:13:44;100844.78;;;9.09;100.00
30598;BME280;17365;48.878;8.334;2023-02-19T07:16:10;100858.66;;;9.14;100.00
30598;BME280;17365;48.878;8.334;2023-02-19T07:18:37;100863.94;;;9.19;100.00
30598;BME280;17365;48.878;8.334;2023-02-19T07:21:07;100866.75;;;9.29;100.00
30598;BME280;17365;48.878;8.334;2023-02-19T07:23:33;100865.66;;;9.18;100.00
30598;BME280;17365;48.878;8.334;2023-02-19T07:25:58;100874.50;;;9.29;100.00
30598;BME280;17365;48.878;8.334;2023-02-19T07:28:23;100883.06;;;9.27;100.00
30598;BME280;17365;48.878;8.334;2023-02-19T07:30:49;100890.84;;;9.27;100.00
30598;BME280;17365;48.878;8.334;2023-02-19T07:33:14;100896.63;;;9.14;100.00
30598;BME280;17365;48.878;8.334;2023-02-19T07:35:47;100904.38;;;9.14;100.00
30598;BME280;17365;48.878;8.334;2023-02-19T07:38:15;100906.13;;;9.15;100.00
30598;BME280;17365;48.878;8.334;2023-02-19T07:40:41;100895.53;;;9.02;100.00
30598;BME280;17365;48.878;8.334;2023-02-19T07:43:06;100904.28;;;9.08;100.00
30598;BME280;17365;48.878;8.334;2023-02-19T07:45:31;100905.94;;;9.05;100.00
30598;BME280;17365;48.878;8.334;2023-02-19T07:47:56;100907.56;;;9.00;100.00
30598;BME280;17365;48.878;8.334;2023-02-19T07:50:22;100915.53;;;9.10;100.00
30598;BME280;17365;48.878;8.334;2023-02-19T07:52:47;100911.06;;;9.02;100.00
30598;BME280;17365;48.878;8.334;2023-02-19T07:55:12;100899.13;;;9.09;100.00
30598;BME280;17365;48.878;8.334;2023-02-19T07:57:38;100916.47;;;9.15;100.00
30598;BME280;17365;48.878;8.334;2023-02-19T08:00:03;100911.81;;;8.97;100.00
30598;BME280;17365;48.878;8.334;2023-02-19T08:02:28;100922.41;;;9.09;100.00
30598;BME280;17365;48.878;8.334;2023-02-19T08:05:12;100925.09;;;9.14;100.00
30598;BME280;17365;48.878;8.334;2023-02-19T08:07:38;100924.34;;;9.19;100.00
30598;BME280;17365;48.878;8.334;2023-02-19T08:10:04;100923.50;;;9.20;100.00
30598;BME280;17365;48.878;8.334;2023-02-19T08:12:56;100918.97;;;9.09;100.00
30598;BME280;17365;48.878;8.334;2023-02-19T08:15:40;100920.03;;;9.18;100.00
30598;BME280;17365;48.878;8.334;2023-02-19T08:18:06;100918.56;;;9.31;100.00
30598;BME280;17365;48.878;8.334;2023-02-19T08:20:31;100927.16;;;9.30;100.00
30598;BME280;17365;48.878;8.334;2023-02-19T08:22:57;100929.53;;;9.19;100.00
30598;BME280;17365;48.878;8.334;2023-02-19T08:25:22;100933.13;;;9.27;100.00
30598;BME280;17365;48.878;8.334;2023-02-19T08:27:47;100937.59;;;9.34;100.00
30598;BME280;17365;48.878;8.334;2023-02-19T08:30:12;100935.34;;;9.51;100.00
30598;BME280;17365;48.878;8.334;2023-02-19T08:32:38;100942.16;;;9.46;100.00
30598;BME280;17365;48.878;8.334;2023-02-19T08:35:03;100937.88;;;9.50;100.00
30598;BME280;17365;48.878;8.334;2023-02-19T08:37:28;100946.72;;;9.59;100.00
30598;BME280;17365;48.878;8.334;2023-02-19T08:39:54;100948.81;;;9.35;100.00
30598;BME280;17365;48.878;8.334;2023-02-19T08:42:19;100938.84;;;9.53;100.00
30598;BME280;17365;48.878;8.334;2023-02-19T08:44:44;100946.53;;;9.50;100.00
30598;BME280;17365;48.878;8.334;2023-02-19T08:47:09;100948.22;;;9.48;100.00
30598;BME280;17365;48.878;8.334;2023-02-19T08:49:35;100949.88;;;9.43;100.00
30598;BME280;17365;48.878;8.334;2023-02-19T08:52:00;100951.72;;;9.50;100.00
30598;BME280;17365;48.878;8.334;2023-02-19T08:54:25;100946.75;;;9.62;100.00
30598;BME280;17365;48.878;8.334;2023-02-19T08:56:51;100950.75;;;9.44;100.00
30598;BME280;17365;48.878;8.334;2023-02-19T08:59:16;100957.75;;;9.51;100.00
30598;BME280;17365;48.878;8.334;2023-02-19T09:01:43;100963.78;;;9.50;100.00
30598;BME280;17365;48.878;8.334;2023-02-19T09:04:11;100946.47;;;9.47;100.00
30598;BME280;17365;48.878;8.334;2023-02-19T09:06:36;100948.59;;;9.67;100.00
30598;BME280;17365;48.878;8.334;2023-02-19T09:09:02;100950.06;;;9.52;100.00
30598;BME280;17365;48.878;8.334;2023-02-19T09:11:27;100957.38;;;9.75;100.00
30598;BME280;17365;48.878;8.334;2023-02-19T09:13:54;100958.34;;;9.80;100.00
30598;BME280;17365;48.878;8.334;2023-02-19T09:16:20;100956.66;;;9.83;100.00
30598;BME280;17365;48.878;8.334;2023-02-19T09:18:45;100961.00;;;9.84;100.00
30598;BME280;17365;48.878;8.334;2023-02-19T09:21:10;100962.94;;;9.96;100.00
30598;BME280;17365;48.878;8.334;2023-02-19T09:23:36;100960.25;;;9.90;100.00
30598;BME280;17365;48.878;8.334;2023-02-19T09:26:02;100957.69;;;9.91;100.00
30598;BME280;17365;48.878;8.334;2023-02-19T09:28:31;100952.53;;;9.95;100.00
30598;BME280;17365;48.878;8.334;2023-02-19T09:30:56;100964.50;;;9.86;100.00
30598;BME280;17365;48.878;8.334;2023-02-19T09:33:27;100973.91;;;9.81;100.00
30598;BME280;17365;48.878;8.334;2023-02-19T09:35:52;100970.50;;;9.84;100.00
30598;BME280;17365;48.878;8.334;2023-02-19T09:38:17;100970.22;;;9.69;100.00
30598;BME280;17365;48.878;8.334;2023-02-19T09:40:42;100979.97;;;9.82;100.00
30598;BME280;17365;48.878;8.334;2023-02-19T09:43:14;100984.47;;;9.92;100.00
30598;BME280;17365;48.878;8.334;2023-02-19T09:45:41;100992.44;;;10.03;100.00
30598;BME280;17365;48.878;8.334;2023-02-19T09:48:09;100998.31;;;9.94;100.00
30598;BME280;17365;48.878;8.334;2023-02-19T09:50:39;101006.28;;;10.03;100.00
30598;BME280;17365;48.878;8.334;2023-02-19T09:53:13;101010.72;;;10.09;100.00
30598;BME280;17365;48.878;8.334;2023-02-19T09:55:41;101010.84;;;10.18;100.00
30598;BME280;17365;48.878;8.334;2023-02-19T09:58:33;101014.88;;;10.01;100.00
30598;BME280;17365;48.878;8.334;2023-02-19T10:01:00;101019.44;;;10.14;100.00
30598;BME280;17365;48.878;8.334;2023-02-19T10:03:27;101022.75;;;10.07;99.47
30598;BME280;17365;48.878;8.334;2023-02-19T10:06:00;101015.38;;;10.27;99.72
30598;BME280;17365;48.878;8.334;2023-02-19T10:08:30;101018.00;;;10.30;99.50
30598;BME280;17365;48.878;8.334;2023-02-19T10:10:56;101009.34;;;10.29;98.72
30598;BME280;17365;48.878;8.334;2023-02-19T10:13:38;101012.66;;;10.20;98.27
30598;BME280;17365;48.878;8.334;2023-02-19T10:16:06;101005.91;;;10.30;97.20
30598;BME280;17365;48.878;8.334;2023-02-19T10:18:41;101003.28;;;10.27;96.45
30598;BME280;17365;48.878;8.334;2023-02-19T10:21:09;101003.50;;;10.41;96.54
30598;BME280;17365;48.878;8.334;2023-02-19T10:23:36;101007.63;;;10.28;96.17
30598;BME280;17365;48.878;8.334;2023-02-19T10:26:03;101006.19;;;10.45;96.71
30598;BME280;17365;48.878;8.334;2023-02-19T10:28:31;101017.44;;;10.46;96.74
30598;BME280;17365;48.878;8.334;2023-02-19T10:30:59;101016.44;;;10.39;95.20
30598;BME280;17365;48.878;8.334;2023-02-19T10:33:25;101032.44;;;10.17;96.10
30598;BME280;17365;48.878;8.334;2023-02-19T10:35:56;101021.94;;;10.56;96.11
30598;BME280;17365;48.878;8.334;2023-02-19T10:38:44;101021.91;;;10.55;95.94
30598;BME280;17365;48.878;8.334;2023-02-19T10:41:14;101027.00;;;10.48;95.66
30598;BME280;17365;48.878;8.334;2023-02-19T10:43:44;101027.22;;;10.62;95.64
30598;BME280;17365;48.878;8.334;2023-02-19T10:46:18;101025.31;;;10.52;94.54
30598;BME280;17365;48.878;8.334;2023-02-19T10:48:50;101020.28;;;10.63;95.60
30598;BME280;17365;48.878;8.334;2023-02-19T10:51:18;101013.97;;;10.44;96.00
30598;BME280;17365;48.878;8.334;2023-02-19T10:53:48;101023.53;;;10.49;95.76
30598;BME280;17365;48.878;8.334;2023-02-19T10:56:22;101037.44;;;10.53;95.37
30598;BME280;17365;48.878;8.334;2023-02-19T10:58:48;101024.50;;;10.55;95.70
30598;BME280;17365;48.878;8.334;2023-02-19T11:01:23;101025.44;;;10.60;93.94
30598;BME280;17365;48.878;8.334;2023-02-19T11:03:52;101031.63;;;10.68;93.74
30598;BME280;17365;48.878;8.334;2023-02-19T11:06:37;101034.56;;;10.89;93.11
30598;BME280;17365;48.878;8.334;2023-02-19T11:09:03;101031.19;;;10.95;91.12
30598;BME280;17365;48.878;8.334;2023-02-19T11:11:34;101034.66;;;10.95;90.35
30598;BME280;17365;48.878;8.334;2023-02-19T11:14:15;101030.50;;;11.06;88.50
30598;BME280;17365;48.878;8.334;2023-02-19T11:16:47;101024.75;;;11.30;86.54
30598;BME280;17365;48.878;8.334;2023-02-19T11:19:35;101025.84;;;11.45;85.81
30598;BME280;17365;48.878;8.334;2023-02-19T11:22:01;101028.16;;;11.25;84.82
30598;BME280;17365;48.878;8.334;2023-02-19T11:24:33;101025.13;;;11.56;84.55
30598;BME280;17365;48.878;8.334;2023-02-19T11:27:02;101017.78;;;11.26;83.00
30598;BME280;17365;48.878;8.334;2023-02-19T11:29:28;101036.63;;;11.12;83.37
30598;BME280;17365;48.878;8.334;2023-02-19T11:34:43;101015.31;;;11.35;83.01
30598;BME280;17365;48.878;8.334;2023-02-19T11:37:14;101015.47;;;11.48;82.87
30598;BME280;17365;48.878;8.334;2023-02-19T11:39:43;101005.41;;;11.08;81.99
30598;BME280;17365;48.878;8.334;2023-02-19T11:42:41;101018.97;;;11.50;81.06
30598;BME280;17365;48.878;8.334;2023-02-19T11:45:33;101024.28;;;11.60;80.54
30598;BME280;17365;48.878;8.334;2023-02-19T11:48:13;101027.00;;;11.70;79.79
30598;BME280;17365;48.878;8.334;2023-02-19T11:53:33;101023.56;;;11.71;79.05
30598;BME280;17365;48.878;8.334;2023-02-19T11:56:21;101028.03;;;11.81;78.48
30598;BME280;17365;48.878;8.334;2023-02-19T12:18:02;101031.88;;;12.13;77.46
30598;BME280;17365;48.878;8.334;2023-02-19T12:23:57;101018.97;;;12.24;75.50
30598;BME280;17365;48.878;8.334;2023-02-19T12:26:29;101032.38;;;11.82;77.03
30598;BME280;17365;48.878;8.334;2023-02-19T12:32:25;101026.44;;;11.92;76.49
30598;BME280;17365;48.878;8.334;2023-02-19T12:37:51;101012.28;;;11.69;76.78
30598;BME280;17365;48.878;8.334;2023-02-19T12:43:13;100999.06;;;12.31;75.18
30598;BME280;17365;48.878;8.334;2023-02-19T12:45:55;101004.03;;;12.06;73.94
30598;BME280;17365;48.878;8.334;2023-02-19T12:48:30;101008.44;;;12.12;72.47
30598;BME280;17365;48.878;8.334;2023-02-19T12:51:15;101013.19;;;11.74;73.36
30598;BME280;17365;48.878;8.334;2023-02-19T12:58:52;101013.69;;;12.16;72.67
30598;BME280;17365;48.878;8.334;2023-02-19T13:01:24;101013.69;;;12.16;71.51
30598;BME280;17365;48.878;8.334;2023-02-19T13:06:39;101008.09;;;11.80;71.05
30598;BME280;17365;48.878;8.334;2023-02-19T13:09:13;101020.47;;;12.02;70.89
30598;BME280;17365;48.878;8.334;2023-02-19T13:11:55;101016.13;;;12.01;71.29
30598;BME280;17365;48.878;8.334;2023-02-19T13:16:56;101011.22;;;12.33;69.55
30598;BME280;17365;48.878;8.334;2023-02-19T13:19:24;101000.00;;;12.36;68.09
30598;BME280;17365;48.878;8.334;2023-02-19T13:21:57;101010.88;;;12.00;68.51
30598;BME280;17365;48.878;8.334;2023-02-19T13:24:46;101012.91;;;12.27;69.92
30598;BME280;17365;48.878;8.334;2023-02-19T13:30:42;101022.25;;;12.09;68.98
30598;BME280;17365;48.878;8.334;2023-02-19T13:33:35;101027.59;;;12.21;68.77
30598;BME280;17365;48.878;8.334;2023-02-19T13:36:09;101016.19;;;12.07;69.60
30598;BME280;17365;48.878;8.334;2023-02-19T13:38:39;101027.63;;;12.24;69.98
30598;BME280;17365;48.878;8.334;2023-02-19T13:41:04;101027.31;;;11.94;70.49
30598;BME280;17365;48.878;8.334;2023-02-19T13:43:34;101006.66;;;12.08;70.99
30598;BME280;17365;48.878;8.334;2023-02-19T13:46:08;101006.84;;;12.26;71.37
30598;BME280;17365;48.878;8.334;2023-02-19T13:48:39;100992.69;;;11.98;72.17
30598;BME280;17365;48.878;8.334;2023-02-19T14:09:43;100994.28;;;11.87;74.84
30598;BME280;17365;48.878;8.334;2023-02-19T14:20:01;100996.03;;;11.86;74.93
30598;BME280;17365;48.878;8.334;2023-02-19T14:27:58;101007.22;;;11.79;75.85
30598;BME280;17365;48.878;8.334;2023-02-19T14:30:26;101001.28;;;11.91;75.38
30598;BME280;17365;48.878;8.334;2023-02-19T14:32:52;101001.22;;;11.85;75.33
30598;BME280;17365;48.878;8.334;2023-02-19T14:35:23;101007.84;;;11.63;77.24
30598;BME280;17365;48.878;8.334;2023-02-19T14:37:50;101012.91;;;11.52;77.45
30598;BME280;17365;48.878;8.334;2023-02-19T14:40:32;101006.84;;;11.52;77.63
30598;BME280;17365;48.878;8.334;2023-02-19T14:42:59;101011.22;;;11.54;77.61
30598;BME280;17365;48.878;8.334;2023-02-19T14:45:27;101019.06;;;11.59;77.28
30598;BME280;17365;48.878;8.334;2023-02-19T14:47:55;101018.66;;;11.27;79.70
30598;BME280;17365;48.878;8.334;2023-02-19T14:50:28;101014.28;;;11.23;81.43